KGPT/GPT METAR and TAF weather

Enter ICAO airport designator
Station Type Date Time Source
KGPT METAR 2022/01/26 20:53 UTC NOAA

KGPT 262053Z 02010KT 10SM CLR 14/M04 A3020 RMK AO2 SLP226 T01391039 56017


Station Type Date Time Source
KGPT Decoded METAR 2022/01/26 20:53 UTC NOAA

GULFPORT-BILOXI REG AIRPORT , MS, United States (KGPT) 30-25N 089-05W 14M
Jan 26, 2022 - 03:53 PM EST / 2022.01.26 2053 UTC
Wind: from the NNE (020 degrees) at 12 MPH (10 KT):0
Visibility: 10 mile(s):0
Sky conditions: clear
Temperature: 57.0 F (13.9 C)
Dew Point: 25.0 F (-3.9 C)
Relative Humidity: 28%
Pressure (altimeter): 30.2 in. Hg (1022 hPa)
Pressure tendency: 0.05 inches (1.7 hPa) lower than three hours ago
ob: KGPT 262053Z 02010KT 10SM CLR 14/M04 A3020 RMK AO2 SLP226 T01391039 56017
cycle: 21

Station Type Date Time Source
KGPT TAF 2022/01/26 18:22 UTC NOAA

TAF KGPT 261720Z 2618/2718 02016G21KT P6SM SKC
FM261900 02011KT P6SM FEW250
FM271600 05005KT P6SM FEW250

Example: see airport list